Time;durP1;ratioP1;P1;durP2;ratioP2;P2;SDS_P1;SDS_P2;PMS_P1;PMS_P2;Temp;Humidity;BMP_temperature;BMP_pressure;BME280_temperature;BME280_humidity;BME280_pressure;Samples;Min_cycle;Max_cycle;Signal;HPM_P1;HPM_P2
2022/04/19 00:00:33;;;;;;;13.38;6.85;;;;;;;;;;5088800;28;20402;-65
2022/04/19 00:03:00;;;;;;;12.95;7.43;;;;;;;;;;5089768;28;20493;-65
2022/04/19 00:05:26;;;;;;;11.77;6.82;;;;;;;;;;5088944;28;20040;-65
2022/04/19 00:07:52;;;;;;;10.25;6.53;;;;;;;;;;5089776;28;20059;-65
2022/04/19 00:10:18;;;;;;;9.93;6.70;;;;;;;;;;5089756;28;20048;-65
2022/04/19 00:12:45;;;;;;;8.23;6.82;;;;;;;;;;5090339;28;20032;-65
2022/04/19 00:15:12;;;;;;;12.15;7.28;;;;;;;;;;5090222;28;20044;-65
2022/04/19 00:17:38;;;;;;;9.80;7.10;;;;;;;;;;5089500;28;20338;-65
2022/04/19 00:20:04;;;;;;;12.77;7.20;;;;;;;;;;5090845;28;20090;-65
2022/04/19 00:22:30;;;;;;;12.25;7.63;;;;;;;;;;5094079;28;20044;-65
2022/04/19 00:24:56;;;;;;;10.82;6.93;;;;;;;;;;5093559;28;20083;-65
2022/04/19 00:27:22;;;;;;;9.50;6.85;;;;;;;;;;5075041;28;20072;-65
2022/04/19 00:29:49;;;;;;;9.55;6.97;;;;;;;;;;5073755;28;20043;-65
2022/04/19 00:32:15;;;;;;;9.38;7.00;;;;;;;;;;5073819;28;20048;-65
2022/04/19 00:34:41;;;;;;;10.85;7.22;;;;;;;;;;5073473;28;20119;-65
2022/04/19 00:37:07;;;;;;;10.98;7.68;;;;;;;;;;5073572;28;20036;-65
2022/04/19 00:39:33;;;;;;;9.85;7.30;;;;;;;;;;5073613;28;20080;-65
2022/04/19 00:41:59;;;;;;;10.48;7.47;;;;;;;;;;5073017;28;20483;-65
2022/04/19 00:44:25;;;;;;;13.15;8.15;;;;;;;;;;5073405;28;20036;-65
2022/04/19 00:46:51;;;;;;;15.18;8.55;;;;;;;;;;5073516;28;20044;-65
2022/04/19 00:49:18;;;;;;;13.70;8.40;;;;;;;;;;5072927;28;20060;-65
2022/04/19 00:51:44;;;;;;;15.07;9.70;;;;;;;;;;5073484;28;20040;-65
2022/04/19 00:54:11;;;;;;;17.48;10.18;;;;;;;;;;5073425;28;20047;-65
2022/04/19 00:56:38;;;;;;;15.77;9.60;;;;;;;;;;5072785;28;20040;-65
2022/04/19 00:59:04;;;;;;;17.05;10.68;;;;;;;;;;5073040;28;20045;-65
2022/04/19 01:01:30;;;;;;;16.52;10.45;;;;;;;;;;5071936;28;20402;-65
2022/04/19 01:03:58;;;;;;;18.92;12.13;;;;;;;;;;5072316;28;20032;-65
2022/04/19 01:06:24;;;;;;;17.50;10.93;;;;;;;;;;5072500;28;20141;-68
2022/04/19 01:08:50;;;;;;;20.25;11.43;;;;;;;;;;5073023;28;20119;-65
2022/04/19 01:14:02;;;;;;;17.05;11.80;;;;;;;;;;5073080;28;20105;-65
2022/04/19 01:16:28;;;;;;;17.75;11.73;;;;;;;;;;5073042;28;20063;-65
2022/04/19 01:18:55;;;;;;;20.65;12.50;;;;;;;;;;5072166;28;20029;-65
2022/04/19 01:21:21;;;;;;;18.38;12.15;;;;;;;;;;5071550;28;20418;-65
2022/04/19 01:23:48;;;;;;;17.40;11.77;;;;;;;;;;5072679;28;20126;-65
2022/04/19 01:26:14;;;;;;;17.33;10.77;;;;;;;;;;5081549;28;20093;-65
2022/04/19 01:28:40;;;;;;;13.32;9.90;;;;;;;;;;5092600;28;20131;-65
2022/04/19 01:31:06;;;;;;;19.17;11.57;;;;;;;;;;5092871;28;20147;-65
2022/04/19 01:33:32;;;;;;;15.77;10.80;;;;;;;;;;5091874;28;20044;-65
2022/04/19 01:35:58;;;;;;;17.65;10.80;;;;;;;;;;5092915;28;20435;-65
2022/04/19 01:38:24;;;;;;;16.63;10.80;;;;;;;;;;5092313;28;20129;-65
2022/04/19 01:40:50;;;;;;;17.23;10.45;;;;;;;;;;5091886;28;20047;-65
2022/04/19 01:43:16;;;;;;;15.75;10.40;;;;;;;;;;5092609;28;20039;-65
2022/04/19 01:45:42;;;;;;;17.80;10.95;;;;;;;;;;5092825;28;20506;-65
2022/04/19 01:48:08;;;;;;;16.25;10.68;;;;;;;;;;5091771;28;20035;-65
2022/04/19 01:50:37;;;;;;;15.63;9.80;;;;;;;;;;5092509;28;20044;-65
2022/04/19 01:53:03;;;;;;;15.27;9.70;;;;;;;;;;5092492;28;20052;-65
2022/04/19 01:55:29;;;;;;;15.93;10.43;;;;;;;;;;5091937;28;20051;-65
2022/04/19 01:57:57;;;;;;;16.63;10.25;;;;;;;;;;5092187;28;20607;-65
2022/04/19 02:00:24;;;;;;;15.70;10.32;;;;;;;;;;5092465;28;20036;-65
2022/04/19 02:02:50;;;;;;;14.80;9.85;;;;;;;;;;5091805;28;20395;-65
2022/04/19 02:05:16;;;;;;;15.00;9.57;;;;;;;;;;5092289;28;20119;-65
2022/04/19 02:07:44;;;;;;;15.07;10.02;;;;;;;;;;5091606;28;20436;-65
2022/04/19 02:10:11;;;;;;;14.38;9.02;;;;;;;;;;5090155;28;20054;-65
2022/04/19 02:12:38;;;;;;;13.73;9.35;;;;;;;;;;5092112;28;20043;-65
2022/04/19 02:15:05;;;;;;;13.35;9.07;;;;;;;;;;5091950;28;20327;-65
2022/04/19 02:17:31;;;;;;;15.70;9.77;;;;;;;;;;5091382;28;20036;-66
2022/04/19 02:20:04;;;;;;;14.88;10.35;;;;;;;;;;5091997;28;20040;-66
2022/04/19 02:22:31;;;;;;;13.75;9.05;;;;;;;;;;5092412;28;20331;-66
2022/04/19 02:24:58;;;;;;;15.73;9.88;;;;;;;;;;5091359;28;20040;-66
2022/04/19 02:27:24;;;;;;;13.98;9.43;;;;;;;;;;5072362;28;20510;-66
2022/04/19 02:29:55;;;;;;;15.13;9.10;;;;;;;;;;5071293;28;20041;-66
2022/04/19 02:32:23;;;;;;;13.90;9.27;;;;;;;;;;5070777;28;20044;-66
2022/04/19 02:34:49;;;;;;;12.68;9.13;;;;;;;;;;5070065;28;20059;-66
2022/04/19 02:37:16;;;;;;;13.95;9.50;;;;;;;;;;5071082;28;20131;-66
2022/04/19 02:39:42;;;;;;;16.17;9.98;;;;;;;;;;5070582;28;20049;-66
2022/04/19 02:42:08;;;;;;;14.27;8.77;;;;;;;;;;5071256;28;20102;-66
2022/04/19 02:44:35;;;;;;;13.13;9.23;;;;;;;;;;5070755;28;20040;-66
2022/04/19 02:47:02;;;;;;;15.88;9.57;;;;;;;;;;5070163;28;20119;-66
2022/04/19 02:49:28;;;;;;;21.05;11.13;;;;;;;;;;5070899;28;20048;-66
2022/04/19 02:51:55;;;;;;;18.50;10.88;;;;;;;;;;5071020;28;20040;-66
2022/04/19 02:54:21;;;;;;;16.95;11.02;;;;;;;;;;5070118;28;20123;-66
2022/04/19 02:56:50;;;;;;;21.42;12.30;;;;;;;;;;5070955;28;20040;-66
2022/04/19 02:59:16;;;;;;;18.40;11.90;;;;;;;;;;5070904;28;20093;-66
2022/04/19 03:01:42;;;;;;;21.92;12.32;;;;;;;;;;5070338;28;20120;-66
2022/04/19 03:04:08;;;;;;;20.52;12.13;;;;;;;;;;5070874;28;20120;-66
2022/04/19 03:06:34;;;;;;;19.85;11.45;;;;;;;;;;5070871;28;20037;-66
2022/04/19 03:09:00;;;;;;;16.35;10.45;;;;;;;;;;5070280;28;20159;-66
2022/04/19 03:11:27;;;;;;;15.60;10.32;;;;;;;;;;5070988;28;20047;-66
2022/04/19 03:13:53;;;;;;;20.40;10.60;;;;;;;;;;5070846;28;20052;-66
2022/04/19 03:16:19;;;;;;;17.23;10.68;;;;;;;;;;5070270;28;20104;-66
2022/04/19 03:18:45;;;;;;;21.33;11.45;;;;;;;;;;5070283;28;20036;-66
2022/04/19 03:21:12;;;;;;;16.08;10.15;;;;;;;;;;5070640;28;20422;-66
2022/04/19 03:29:08;;;;;;;18.35;10.23;;;;;;;;;;5090344;28;20055;-66
2022/04/19 03:31:35;;;;;;;17.38;10.73;;;;;;;;;;5090068;28;20446;-66
2022/04/19 03:34:03;;;;;;;17.13;10.45;;;;;;;;;;5090263;28;20040;-66
2022/04/19 03:36:29;;;;;;;18.17;10.65;;;;;;;;;;5090608;28;20048;-66
2022/04/19 03:38:55;;;;;;;17.67;9.90;;;;;;;;;;5089639;28;20056;-66
2022/04/19 03:41:21;;;;;;;14.32;9.98;;;;;;;;;;5090608;28;20439;-66
2022/04/19 03:43:47;;;;;;;15.52;9.85;;;;;;;;;;5090534;28;20043;-66
2022/04/19 03:46:13;;;;;;;16.10;10.13;;;;;;;;;;5090036;28;20040;-66
2022/04/19 03:48:39;;;;;;;21.90;9.88;;;;;;;;;;5090450;28;20090;-66
2022/04/19 03:51:05;;;;;;;15.20;9.80;;;;;;;;;;5090497;28;20117;-66
2022/04/19 03:53:31;;;;;;;15.85;9.18;;;;;;;;;;5089558;28;20486;-66
2022/04/19 03:55:58;;;;;;;15.13;9.15;;;;;;;;;;5094384;28;20379;-66
2022/04/19 03:58:26;;;;;;;17.58;9.48;;;;;;;;;;5092969;28;20406;-66
2022/04/19 04:00:52;;;;;;;15.77;9.80;;;;;;;;;;5093809;28;20047;-66
2022/04/19 04:03:18;;;;;;;11.77;8.93;;;;;;;;;;5094842;28;20063;-66
2022/04/19 04:05:44;;;;;;;13.43;8.90;;;;;;;;;;5094387;28;20501;-66
2022/04/19 04:08:10;;;;;;;14.35;9.43;;;;;;;;;;5093465;28;20184;-66
2022/04/19 04:10:36;;;;;;;14.40;9.85;;;;;;;;;;5094965;28;20083;-66
2022/04/19 04:13:04;;;;;;;15.70;9.95;;;;;;;;;;5094296;28;20063;-66
2022/04/19 04:15:30;;;;;;;15.63;9.30;;;;;;;;;;5093874;28;20048;-66
2022/04/19 04:17:56;;;;;;;14.70;9.30;;;;;;;;;;5094334;28;20097;-66
2022/04/19 04:20:22;;;;;;;15.93;10.40;;;;;;;;;;5094409;28;20554;-66
2022/04/19 04:22:48;;;;;;;16.35;9.82;;;;;;;;;;5093717;28;20043;-66
2022/04/19 04:25:14;;;;;;;16.63;9.90;;;;;;;;;;5093336;28;20040;-66
2022/04/19 04:27:40;;;;;;;34.00;10.20;;;;;;;;;;5073861;28;20098;-66
2022/04/19 04:30:06;;;;;;;13.77;9.48;;;;;;;;;;5073143;28;20103;-66
2022/04/19 04:32:32;;;;;;;14.93;10.80;;;;;;;;;;5073666;28;20033;-66
2022/04/19 04:34:58;;;;;;;15.30;9.90;;;;;;;;;;5073236;28;20458;-66
2022/04/19 04:37:25;;;;;;;20.05;10.80;;;;;;;;;;5072450;28;20072;-66
2022/04/19 04:39:51;;;;;;;15.77;9.85;;;;;;;;;;5073429;28;20505;-66
2022/04/19 04:42:17;;;;;;;18.08;9.80;;;;;;;;;;5073478;28;20032;-66
2022/04/19 04:44:43;;;;;;;19.77;10.98;;;;;;;;;;5073034;28;20044;-66
2022/04/19 04:49:57;;;;;;;13.88;10.35;;;;;;;;;;5073423;28;20041;-66
2022/04/19 04:52:23;;;;;;;17.52;11.45;;;;;;;;;;5072698;28;20487;-66
2022/04/19 04:54:49;;;;;;;15.88;10.02;;;;;;;;;;5072761;28;20040;-66
2022/04/19 04:57:15;;;;;;;18.92;11.15;;;;;;;;;;5071742;28;20049;-66
2022/04/19 04:59:41;;;;;;;18.38;10.80;;;;;;;;;;5072150;28;20076;-66
2022/04/19 05:02:08;;;;;;;15.43;10.52;;;;;;;;;;5073189;28;20072;-66
2022/04/19 05:04:35;;;;;;;19.52;10.07;;;;;;;;;;5072811;28;20044;-66
2022/04/19 05:07:01;;;;;;;17.63;10.02;;;;;;;;;;5071292;28;20055;-66
2022/04/19 05:09:27;;;;;;;17.95;10.00;;;;;;;;;;5073009;28;20047;-66
2022/04/19 05:11:53;;;;;;;15.55;9.85;;;;;;;;;;5072968;28;20044;-66
2022/04/19 05:14:20;;;;;;;14.88;9.20;;;;;;;;;;5072416;28;20093;-66
2022/04/19 05:16:46;;;;;;;15.05;9.75;;;;;;;;;;5072870;28;20044;-66
2022/04/19 05:19:12;;;;;;;18.08;9.35;;;;;;;;;;5072627;28;20483;-66
2022/04/19 05:21:38;;;;;;;17.33;9.30;;;;;;;;;;5070932;28;20040;-66
2022/04/19 05:24:05;;;;;;;14.20;9.35;;;;;;;;;;5072131;28;20100;-66
2022/04/19 05:26:31;;;;;;;16.95;9.45;;;;;;;;;;5082955;28;20773;-66
2022/04/19 05:28:57;;;;;;;15.38;9.43;;;;;;;;;;5092100;28;20040;-66
2022/04/19 05:31:24;;;;;;;16.05;9.95;;;;;;;;;;5092738;28;20417;-66
2022/04/19 05:33:50;;;;;;;14.32;9.55;;;;;;;;;;5092864;28;20043;-66
2022/04/19 05:36:16;;;;;;;14.13;8.85;;;;;;;;;;5092123;28;20039;-66
2022/04/19 05:38:42;;;;;;;25.48;9.82;;;;;;;;;;5092233;28;20052;-66
2022/04/19 05:41:08;;;;;;;15.93;9.00;;;;;;;;;;5090577;28;20094;-66
2022/04/19 05:43:34;;;;;;;20.17;9.25;;;;;;;;;;5089191;28;20517;-66
2022/04/19 05:46:00;;;;;;;11.93;8.38;;;;;;;;;;5082634;28;20430;-66
2022/04/19 05:48:26;;;;;;;17.50;8.65;;;;;;;;;;5079545;28;20111;-66
2022/04/19 05:50:52;;;;;;;14.05;9.18;;;;;;;;;;5087687;28;20444;-66
2022/04/19 05:53:19;;;;;;;13.40;9.00;;;;;;;;;;5088851;28;20629;-66
2022/04/19 05:55:45;;;;;;;14.43;8.93;;;;;;;;;;5091326;28;20044;-66
2022/04/19 05:58:11;;;;;;;16.58;9.40;;;;;;;;;;5090814;28;20560;-66
2022/04/19 06:00:37;;;;;;;13.52;8.85;;;;;;;;;;5091486;28;20063;-66
2022/04/19 06:05:48;;;;;;;14.18;8.75;;;;;;;;;;5091254;28;20040;-66
2022/04/19 06:08:14;;;;;;;14.10;8.38;;;;;;;;;;5091160;28;20043;-66
2022/04/19 06:10:40;;;;;;;14.45;8.70;;;;;;;;;;5091938;28;20039;-66
2022/04/19 06:13:07;;;;;;;13.05;8.68;;;;;;;;;;5090873;28;20043;-66
2022/04/19 06:15:33;;;;;;;12.98;8.88;;;;;;;;;;5091531;28;20075;-66
2022/04/19 06:17:59;;;;;;;15.45;8.43;;;;;;;;;;5090305;28;20040;-66
2022/04/19 06:20:25;;;;;;;12.23;8.55;;;;;;;;;;5090869;28;20036;-66
2022/04/19 06:22:51;;;;;;;11.80;8.70;;;;;;;;;;5091590;28;20097;-66
2022/04/19 06:25:17;;;;;;;12.75;8.25;;;;;;;;;;5090959;28;20040;-66
2022/04/19 06:27:43;;;;;;;13.05;8.52;;;;;;;;;;5077703;28;20117;-66
2022/04/19 06:30:10;;;;;;;13.13;8.18;;;;;;;;;;5091359;28;20043;-66
2022/04/19 06:32:36;;;;;;;12.95;8.35;;;;;;;;;;5091038;28;20089;-66
2022/04/19 06:35:02;;;;;;;13.18;8.82;;;;;;;;;;5090403;28;20040;-66
2022/04/19 06:37:30;;;;;;;13.48;9.10;;;;;;;;;;5087835;28;20343;-65
2022/04/19 06:40:00;;;;;;;11.90;7.70;;;;;;;;;;5070037;28;20052;-66
2022/04/19 06:42:26;;;;;;;11.43;8.30;;;;;;;;;;5075944;28;20572;-65
2022/04/19 06:44:52;;;;;;;13.52;7.93;;;;;;;;;;5088095;28;20036;-66
2022/04/19 06:47:18;;;;;;;10.15;7.55;;;;;;;;;;5090101;28;20390;-66
2022/04/19 06:49:45;;;;;;;10.70;7.38;;;;;;;;;;5082768;28;20040;-66
2022/04/19 06:52:11;;;;;;;13.35;7.22;;;;;;;;;;5081075;28;20048;-66
2022/04/19 06:54:37;;;;;;;12.68;8.05;;;;;;;;;;5090536;28;20185;-66
2022/04/19 06:57:03;;;;;;;14.50;8.10;;;;;;;;;;5084276;28;20040;-66
2022/04/19 06:59:29;;;;;;;11.00;7.60;;;;;;;;;;5082592;28;20067;-64
2022/04/19 07:01:55;;;;;;;13.13;8.10;;;;;;;;;;5087305;28;20072;-63
2022/04/19 07:04:21;;;;;;;11.73;7.68;;;;;;;;;;5084771;28;20036;-64
2022/04/19 07:06:49;;;;;;;13.05;7.57;;;;;;;;;;5088912;28;20378;-63
2022/04/19 07:09:15;;;;;;;12.35;6.93;;;;;;;;;;5089736;28;20491;-62
2022/04/19 07:11:41;;;;;;;13.23;8.07;;;;;;;;;;5089054;28;20048;-64
2022/04/19 07:14:07;;;;;;;11.57;7.40;;;;;;;;;;5089565;28;20114;-64
2022/04/19 07:16:33;;;;;;;10.98;6.90;;;;;;;;;;5089215;28;20691;-64
2022/04/19 07:18:59;;;;;;;10.85;7.15;;;;;;;;;;5090568;28;20479;-65
2022/04/19 07:26:56;;;;;;;8.00;6.28;;;;;;;;;;5088478;28;20047;-64
2022/04/19 07:29:22;;;;;;;12.10;7.22;;;;;;;;;;5084194;28;20040;-64
2022/04/19 07:31:51;;;;;;;14.93;7.65;;;;;;;;;;5088999;28;20088;-66
2022/04/19 07:34:17;;;;;;;10.68;7.13;;;;;;;;;;5070846;28;20055;-67
2022/04/19 07:36:43;;;;;;;10.23;6.65;;;;;;;;;;5089924;28;20047;-67
2022/04/19 07:39:10;;;;;;;11.25;7.53;;;;;;;;;;5073326;28;20408;-66
2022/04/19 07:41:40;;;;;;;13.35;7.57;;;;;;;;;;5088647;28;20479;-67
2022/04/19 07:44:08;;;;;;;9.50;6.47;;;;;;;;;;5089494;28;20119;-66
2022/04/19 07:46:35;;;;;;;10.65;7.20;;;;;;;;;;5090327;28;20075;-67
2022/04/19 07:49:02;;;;;;;11.18;6.70;;;;;;;;;;5089886;28;20055;-67
2022/04/19 07:51:28;;;;;;;10.80;5.63;;;;;;;;;;5088541;28;20096;-66
2022/04/19 07:53:55;;;;;;;9.63;6.10;;;;;;;;;;5087560;28;20449;-66
2022/04/19 07:56:21;;;;;;;9.18;5.43;;;;;;;;;;5089020;28;20874;-65
2022/04/19 07:58:47;;;;;;;11.07;6.18;;;;;;;;;;5088766;28;20070;-68
2022/04/19 08:01:17;;;;;;;10.80;5.82;;;;;;;;;;5079330;28;20047;-67
2022/04/19 08:03:43;;;;;;;8.45;5.20;;;;;;;;;;5089078;28;20216;-66
2022/04/19 08:06:09;;;;;;;10.40;6.07;;;;;;;;;;5088696;28;20119;-65
2022/04/19 08:08:35;;;;;;;8.50;5.80;;;;;;;;;;5077084;28;20080;-67
2022/04/19 08:11:03;;;;;;;7.53;4.97;;;;;;;;;;5086253;28;20809;-67
2022/04/19 08:13:30;;;;;;;8.40;5.43;;;;;;;;;;5076007;28;20032;-66
2022/04/19 08:15:56;;;;;;;11.82;6.05;;;;;;;;;;5086836;28;20074;-66
2022/04/19 08:18:22;;;;;;;10.75;6.03;;;;;;;;;;5086362;28;20040;-67
2022/04/19 08:20:49;;;;;;;8.00;5.68;;;;;;;;;;5080479;28;20427;-66
2022/04/19 08:23:15;;;;;;;9.65;5.88;;;;;;;;;;5088744;28;20088;-67
2022/04/19 08:25:43;;;;;;;10.02;5.93;;;;;;;;;;5083561;28;20147;-67
2022/04/19 08:28:09;;;;;;;8.65;6.22;;;;;;;;;;5076141;28;20054;-66
2022/04/19 08:30:35;;;;;;;12.23;6.47;;;;;;;;;;5089097;28;20036;-66
2022/04/19 08:33:01;;;;;;;8.70;5.85;;;;;;;;;;5088666;28;20837;-66
2022/04/19 08:35:27;;;;;;;8.88;5.45;;;;;;;;;;5089861;28;20429;-66
2022/04/19 08:37:54;;;;;;;13.60;6.32;;;;;;;;;;5088853;28;20219;-66
2022/04/19 08:40:20;;;;;;;9.60;5.70;;;;;;;;;;5090328;28;20617;-66
2022/04/19 08:42:46;;;;;;;8.48;5.38;;;;;;;;;;5091536;28;20038;-68
2022/04/19 08:45:14;;;;;;;8.70;5.53;;;;;;;;;;5083244;28;20116;-69
2022/04/19 08:47:46;;;;;;;7.35;5.15;;;;;;;;;;5081742;28;20056;-64
2022/04/19 08:50:14;;;;;;;6.45;4.18;;;;;;;;;;5090953;28;20048;-66
2022/04/19 08:52:40;;;;;;;4.93;3.92;;;;;;;;;;5100170;28;20092;-68
2022/04/19 08:57:52;;;;;;;5.70;3.67;;;;;;;;;;5095666;28;20141;-67
2022/04/19 09:00:22;;;;;;;7.00;4.50;;;;;;;;;;5097282;28;20487;-67
2022/04/19 09:03:02;;;;;;;10.27;5.13;;;;;;;;;;5097414;28;20051;-67
2022/04/19 09:05:29;;;;;;;7.22;5.05;;;;;;;;;;5319086;22;20057;-66
2022/04/19 09:07:57;;;;;;;8.43;5.00;;;;;;;;;;5035983;28;20111;-66
2022/04/19 09:10:30;;;;;;;8.75;5.05;;;;;;;;;;5033021;28;20049;-68
2022/04/19 09:13:04;;;;;;;8.13;4.30;;;;;;;;;;5035454;28;20038;-67
2022/04/19 09:15:34;;;;;;;8.77;4.75;;;;;;;;;;5033001;28;20120;-67
2022/04/19 09:18:00;;;;;;;10.93;4.65;;;;;;;;;;5034603;28;20037;-66
2022/04/19 09:20:27;;;;;;;8.48;3.80;;;;;;;;;;5033762;28;20060;-67
2022/04/19 09:23:05;;;;;;;8.23;3.88;;;;;;;;;;5031411;28;20080;-67
2022/04/19 09:25:41;;;;;;;6.57;3.42;;;;;;;;;;5040521;28;20056;-67
2022/04/19 09:28:17;;;;;;;5.28;3.75;;;;;;;;;;5034376;28;20491;-67
2022/04/19 09:30:44;;;;;;;6.28;3.47;;;;;;;;;;5034949;28;20049;-65
2022/04/19 09:33:11;;;;;;;4.90;3.17;;;;;;;;;;5029943;28;20045;-67
2022/04/19 09:35:48;;;;;;;5.60;3.00;;;;;;;;;;5024316;28;20049;-69
2022/04/19 09:38:15;;;;;;;6.30;2.90;;;;;;;;;;5023336;28;20044;-66
2022/04/19 09:40:42;;;;;;;4.03;2.30;;;;;;;;;;5020661;28;20041;-67
2022/04/19 09:43:10;;;;;;;4.70;2.35;;;;;;;;;;5030951;28;20121;-67
2022/04/19 09:45:46;;;;;;;6.45;2.92;;;;;;;;;;5031720;28;20041;-67
2022/04/19 09:48:42;;;;;;;3.60;2.25;;;;;;;;;;5021121;28;20408;-67
2022/04/19 09:51:08;;;;;;;3.65;2.40;;;;;;;;;;5027004;28;20396;-67
2022/04/19 09:53:45;;;;;;;3.90;2.53;;;;;;;;;;5030519;28;20037;-66
2022/04/19 09:56:12;;;;;;;3.50;2.03;;;;;;;;;;5031567;28;20124;-65
2022/04/19 09:58:42;;;;;;;4.18;2.00;;;;;;;;;;5031429;28;20033;-67
2022/04/19 10:08:10;;;;;;;4.68;1.98;;;;;;;;;;5030798;28;20160;-65
2022/04/19 10:09:25;;;;;;;2.05;1.50;;;;;;;;;;5030418;28;20045;-66
2022/04/19 10:11:51;;;;;;;3.30;1.50;;;;;;;;;;5030856;28;20068;-67
2022/04/19 10:14:18;;;;;;;4.00;1.60;;;;;;;;;;5028770;28;20041;-68
2022/04/19 10:16:45;;;;;;;2.17;1.60;;;;;;;;;;5034158;28;20041;-67
2022/04/19 10:19:13;;;;;;;4.82;2.38;;;;;;;;;;5030369;28;20049;-66
2022/04/19 10:21:41;;;;;;;4.45;1.88;;;;;;;;;;5030964;28;20056;-67
2022/04/19 10:24:15;;;;;;;3.35;2.33;;;;;;;;;;5031246;28;20048;-68
2022/04/19 10:26:43;;;;;;;3.30;2.30;;;;;;;;;;5030723;28;20091;-66
2022/04/19 10:29:19;;;;;;;3.05;2.22;;;;;;;;;;5031933;28;20519;-67
2022/04/19 10:32:06;;;;;;;7.10;2.30;;;;;;;;;;5032303;28;20072;-66
2022/04/19 10:34:33;;;;;;;5.53;2.40;;;;;;;;;;5030312;28;20104;-67
2022/04/19 10:37:26;;;;;;;3.92;2.30;;;;;;;;;;5030970;28;20116;-65
2022/04/19 10:39:58;;;;;;;2.53;1.85;;;;;;;;;;5027955;28;20427;-65
2022/04/19 10:42:32;;;;;;;3.58;1.73;;;;;;;;;;5030366;28;20048;-66
2022/04/19 10:44:58;;;;;;;3.03;2.28;;;;;;;;;;5031899;28;20045;-66
2022/04/19 10:47:26;;;;;;;2.58;2.00;;;;;;;;;;5030578;28;20116;-65
2022/04/19 10:50:01;;;;;;;2.20;1.73;;;;;;;;;;5030888;28;20053;-65
2022/04/19 10:52:39;;;;;;;3.15;1.80;;;;;;;;;;5027793;28;20606;-66
2022/04/19 10:55:08;;;;;;;4.15;2.20;;;;;;;;;;5029890;28;20092;-65
2022/04/19 11:00:43;;;;;;;5.25;1.85;;;;;;;;;;5031457;28;20042;-65
2022/04/19 11:03:17;;;;;;;2.92;2.08;;;;;;;;;;5016022;28;20823;-64
2022/04/19 11:05:44;;;;;;;4.15;2.28;;;;;;;;;;5030118;28;20065;-64
2022/04/19 11:08:25;;;;;;;3.92;1.88;;;;;;;;;;5030736;28;20050;-64
2022/04/19 11:10:58;;;;;;;1.50;1.35;;;;;;;;;;5030219;28;20053;-64
2022/04/19 11:13:24;;;;;;;;;;;;;;;;;;5031247;28;20056;-64
2022/04/19 11:16:02;;;;;;;2.42;1.50;;;;;;;;;;5030340;28;19921;-62
2022/04/19 11:18:29;;;;;;;3.38;1.58;;;;;;;;;;5029932;28;20041;-64
2022/04/19 11:20:57;;;;;;;2.80;1.85;;;;;;;;;;5031040;28;20135;-66
2022/04/19 11:23:24;;;;;;;2.90;1.80;;;;;;;;;;5029900;28;20168;-64
2022/04/19 11:25:52;;;;;;;2.00;1.80;;;;;;;;;;5029795;28;20045;-64
2022/04/19 11:28:19;;;;;;;3.85;1.70;;;;;;;;;;5029469;28;20132;-66
2022/04/19 11:31:06;;;;;;;3.92;1.65;;;;;;;;;;5030126;28;20542;-65
2022/04/19 11:33:33;;;;;;;2.47;1.80;;;;;;;;;;5019163;28;20045;-64
2022/04/19 11:36:00;;;;;;;2.05;1.80;;;;;;;;;;5030101;28;20057;-65
2022/04/19 11:38:29;;;;;;;2.63;1.90;;;;;;;;;;5028968;28;20033;-67
2022/04/19 11:46:44;;;;;;;3.22;1.88;;;;;;;;;;5028729;28;20128;-64
2022/04/19 11:49:19;;;;;;;2.30;1.40;;;;;;;;;;5009754;28;20068;-65
2022/04/19 11:51:45;;;;;;;4.45;1.98;;;;;;;;;;5025670;28;20038;-64
2022/04/19 11:54:19;;;;;;;2.70;1.70;;;;;;;;;;5027222;28;20073;-66
2022/04/19 11:56:45;;;;;;;5.28;1.95;;;;;;;;;;5028076;28;20045;-66
2022/04/19 11:59:11;;;;;;;2.88;1.60;;;;;;;;;;5028827;28;20041;-66
2022/04/19 12:01:37;;;;;;;5.00;1.67;;;;;;;;;;5028477;28;20547;-66
2022/04/19 12:04:11;;;;;;;2.15;1.63;;;;;;;;;;5027561;28;20125;-66
2022/04/19 12:06:37;;;;;;;2.47;1.70;;;;;;;;;;5027849;28;20130;-65
2022/04/19 12:09:03;;;;;;;2.55;1.80;;;;;;;;;;5025323;28;20482;-66
2022/04/19 12:11:29;;;;;;;1.77;1.50;;;;;;;;;;5027507;28;20077;-67
2022/04/19 12:13:59;;;;;;;4.28;1.70;;;;;;;;;;5027980;28;20527;-67
2022/04/19 12:16:30;;;;;;;1.70;1.50;;;;;;;;;;5029189;28;20126;-68
2022/04/19 12:19:01;;;;;;;3.10;1.95;;;;;;;;;;5028549;28;20149;-66
2022/04/19 12:21:38;;;;;;;2.83;1.92;;;;;;;;;;5032685;28;20052;-66
2022/04/19 12:24:04;;;;;;;3.85;2.20;;;;;;;;;;5029211;28;20037;-64
2022/04/19 12:26:31;;;;;;;3.60;2.10;;;;;;;;;;5033714;28;20107;-65
2022/04/19 12:29:06;;;;;;;3.20;1.88;;;;;;;;;;5033281;28;20079;-66
2022/04/19 12:31:39;;;;;;;3.58;2.03;;;;;;;;;;5031514;28;20064;-67
2022/04/19 12:34:06;;;;;;;3.40;1.90;;;;;;;;;;5033348;28;20498;-66
2022/04/19 12:36:42;;;;;;;3.78;2.03;;;;;;;;;;5033134;28;20041;-66
2022/04/19 12:39:08;;;;;;;2.45;1.65;;;;;;;;;;5030951;28;20100;-67
2022/04/19 12:41:45;;;;;;;3.78;1.88;;;;;;;;;;5032356;28;20052;-68
2022/04/19 12:44:12;;;;;;;3.08;2.22;;;;;;;;;;5032069;28;20050;-66
2022/04/19 12:46:39;;;;;;;3.83;2.35;;;;;;;;;;5030971;28;20476;-68
2022/04/19 12:49:04;;;;;;;3.15;2.70;;;;;;;;;;5029693;28;20469;-66
2022/04/19 12:51:30;;;;;;;3.97;2.58;;;;;;;;;;5030921;28;20057;-66
2022/04/19 12:54:00;;;;;;;3.95;2.30;;;;;;;;;;5031176;28;20403;-66
2022/04/19 12:56:26;;;;;;;2.55;2.30;;;;;;;;;;5030808;28;20116;-64
2022/04/19 12:58:52;;;;;;;5.13;2.45;;;;;;;;;;5031253;28;20563;-65
2022/04/19 13:01:18;;;;;;;6.60;2.30;;;;;;;;;;5030378;28;20044;-65
2022/04/19 13:03:44;;;;;;;3.22;1.88;;;;;;;;;;5030466;28;20037;-65
2022/04/19 13:14:24;;;;;;;4.05;1.77;;;;;;;;;;5031017;28;20049;-65
2022/04/19 13:16:51;;;;;;;2.30;1.73;;;;;;;;;;5029908;28;20053;-65
2022/04/19 13:19:17;;;;;;;6.38;1.75;;;;;;;;;;5031771;28;20048;-67
2022/04/19 13:21:43;;;;;;;3.97;1.95;;;;;;;;;;5030547;28;20050;-67
2022/04/19 13:24:12;;;;;;;3.20;2.20;;;;;;;;;;5030004;28;20045;-66
2022/04/19 13:26:38;;;;;;;3.25;1.70;;;;;;;;;;5030332;28;20046;-66
2022/04/19 13:29:04;;;;;;;3.53;1.92;;;;;;;;;;5030297;28;20042;-64
2022/04/19 13:31:30;;;;;;;4.35;1.83;;;;;;;;;;5029002;28;20056;-65
2022/04/19 13:33:56;;;;;;;3.67;2.05;;;;;;;;;;5030542;28;20428;-66
2022/04/19 13:36:22;;;;;;;2.38;1.80;;;;;;;;;;5026856;28;20188;-67
2022/04/19 13:38:48;;;;;;;3.15;1.70;;;;;;;;;;5030691;28;20468;-65
2022/04/19 13:41:14;;;;;;;4.55;2.17;;;;;;;;;;5030387;28;20443;-68
2022/04/19 13:43:40;;;;;;;4.72;1.80;;;;;;;;;;5029922;28;20057;-68
2022/04/19 13:46:06;;;;;;;2.40;1.60;;;;;;;;;;5028217;28;20535;-67
2022/04/19 13:48:32;;;;;;;5.18;2.15;;;;;;;;;;5027494;28;20069;-67
2022/04/19 13:50:58;;;;;;;2.20;1.70;;;;;;;;;;5031306;28;20473;-67
2022/04/19 13:53:25;;;;;;;5.70;2.08;;;;;;;;;;5029152;28;20044;-66
2022/04/19 13:55:52;;;;;;;2.67;1.60;;;;;;;;;;5028362;28;20048;-69
2022/04/19 13:58:18;;;;;;;2.97;1.90;;;;;;;;;;5012381;28;20503;-68
2022/04/19 14:00:45;;;;;;;1.83;1.63;;;;;;;;;;5030058;28;20048;-67
2022/04/19 14:03:11;;;;;;;3.25;1.48;;;;;;;;;;5028681;28;20155;-67
2022/04/19 14:05:37;;;;;;;2.58;1.80;;;;;;;;;;5025940;28;20136;-67
2022/04/19 14:08:03;;;;;;;4.90;2.22;;;;;;;;;;5027809;28;20084;-67
2022/04/19 14:10:29;;;;;;;7.28;2.63;;;;;;;;;;5030229;28;20052;-67
2022/04/19 14:12:55;;;;;;;3.13;1.67;;;;;;;;;;5029689;28;20045;-68
2022/04/19 14:15:21;;;;;;;2.63;1.60;;;;;;;;;;5029608;28;20140;-68
2022/04/19 14:17:47;;;;;;;4.00;1.73;;;;;;;;;;5029820;28;20505;-69
2022/04/19 14:20:13;;;;;;;2.28;2.08;;;;;;;;;;5029340;28;20095;-68
2022/04/19 14:22:39;;;;;;;4.82;1.80;;;;;;;;;;5028921;28;20076;-67
2022/04/19 14:25:05;;;;;;;2.95;1.90;;;;;;;;;;5029048;28;20412;-67
2022/04/19 14:27:31;;;;;;;2.35;1.60;;;;;;;;;;5044819;28;20530;-64
2022/04/19 14:35:27;;;;;;;3.40;1.85;;;;;;;;;;5030264;28;20056;-65
2022/04/19 14:37:53;;;;;;;1.88;1.38;;;;;;;;;;5028245;28;20041;-65
2022/04/19 14:40:19;;;;;;;3.03;1.70;;;;;;;;;;5028297;28;20156;-65
2022/04/19 14:42:45;;;;;;;3.60;1.90;;;;;;;;;;5029480;28;20037;-65
2022/04/19 14:45:13;;;;;;;3.17;1.67;;;;;;;;;;5027490;28;20076;-64
2022/04/19 14:47:39;;;;;;;3.58;1.73;;;;;;;;;;5029667;28;20456;-63
2022/04/19 14:50:06;;;;;;;2.88;2.25;;;;;;;;;;5029380;28;20115;-64
2022/04/19 14:52:32;;;;;;;4.97;2.20;;;;;;;;;;5028516;28;20092;-64
2022/04/19 14:54:58;;;;;;;3.50;2.28;;;;;;;;;;5030642;28;20037;-63
2022/04/19 14:57:25;;;;;;;4.00;1.90;;;;;;;;;;5029409;28;20096;-63
2022/04/19 14:59:51;;;;;;;3.13;2.08;;;;;;;;;;5029213;28;20046;-62
2022/04/19 15:02:17;;;;;;;3.25;2.10;;;;;;;;;;5030985;28;20092;-62
2022/04/19 15:04:44;;;;;;;6.05;2.25;;;;;;;;;;5028499;28;20041;-62
2022/04/19 15:07:10;;;;;;;2.92;2.22;;;;;;;;;;5029229;28;20091;-62
2022/04/19 15:09:36;;;;;;;4.32;2.13;;;;;;;;;;5029600;28;20041;-62
2022/04/19 15:12:02;;;;;;;4.28;2.75;;;;;;;;;;5030222;28;20256;-62
2022/04/19 15:14:30;;;;;;;3.35;2.50;;;;;;;;;;5029139;28;20042;-62
2022/04/19 15:16:56;;;;;;;5.10;2.67;;;;;;;;;;5030261;28;20041;-62
2022/04/19 15:19:22;;;;;;;4.03;2.58;;;;;;;;;;5029630;28;20079;-62
2022/04/19 15:21:48;;;;;;;3.65;3.00;;;;;;;;;;5029315;28;20079;-61
2022/04/19 15:24:15;;;;;;;2.80;2.40;;;;;;;;;;5030117;28;20044;-62